Rutherford College, North Carolina
Current Conditions -  °F | °C
As of 10:35 PM on Monday 20 Oct 2014 (Local Time) from KMRN Reporting Station
Clear Clear  
Wind Chill: 51°   Ceiling: Unl
Heat Index: 51°   Visibility: 10mi
Dew Point: 51°   Wind: 3mph
Humidity: 100%   Direction: 330°NNW
Pressure: 30.04"   Gusts: NA
Location:  35.75°N, 81.52°W
Report Text: KMRN 210235Z AUTO 33003KT 10SM CLR 10/10 A3004 RMK AO2 T01030103
Loading
Personal Weather Stations






























Interactive Weather Map
Tropical Storm Tracking
New forecast layout! Learn more

10-Day Weather Forecast

Advertisements
Track Severe Weather on mobile